createdAt,value
2023-03-03T00:01:35.641Z,100.00
2023-03-03T00:04:41.056Z,100.00
2023-03-03T00:07:49.649Z,100.00
2023-03-03T00:10:55.585Z,100.00
2023-03-03T00:14:04.285Z,100.00
2023-03-03T00:17:16.428Z,100.00
2023-03-03T00:20:38.402Z,100.00
2023-03-03T00:23:43.748Z,100.00
2023-03-03T00:26:49.922Z,100.00
2023-03-03T00:29:58.659Z,100.00
2023-03-03T00:33:13.500Z,100.00
2023-03-03T00:36:31.802Z,100.00
2023-03-03T00:39:38.226Z,100.00
2023-03-03T00:42:44.187Z,100.00
2023-03-03T00:45:50.629Z,100.00
2023-03-03T00:48:56.104Z,100.00
2023-03-03T00:52:02.783Z,100.00
2023-03-03T00:55:09.021Z,100.00
2023-03-03T00:58:14.583Z,100.00
2023-03-03T01:01:21.907Z,100.00
2023-03-03T01:04:29.988Z,100.00
2023-03-03T01:07:35.558Z,100.00
2023-03-03T01:10:43.206Z,100.00
2023-03-03T01:13:49.681Z,100.00
2023-03-03T01:17:06.058Z,100.00
2023-03-03T01:20:13.077Z,100.00
2023-03-03T01:23:18.657Z,100.00
2023-03-03T01:26:23.935Z,100.00
2023-03-03T01:29:32.062Z,100.00
2023-03-03T01:32:37.465Z,100.00
2023-03-03T01:35:45.955Z,100.00
2023-03-03T01:38:54.715Z,100.00
2023-03-03T01:42:00.414Z,100.00
2023-03-03T01:45:15.023Z,100.00
2023-03-03T01:48:24.305Z,100.00
2023-03-03T01:51:30.502Z,100.00
2023-03-03T01:54:39.317Z,100.00
2023-03-03T01:57:47.016Z,100.00
2023-03-03T02:00:54.916Z,100.00
2023-03-03T02:04:01.231Z,100.00
2023-03-03T02:07:11.086Z,100.00
2023-03-03T02:10:20.749Z,100.00
2023-03-03T02:13:26.365Z,100.00
2023-03-03T02:16:33.905Z,100.00
2023-03-03T02:19:47.502Z,100.00
2023-03-03T02:22:54.902Z,100.00
2023-03-03T02:26:10.145Z,100.00
2023-03-03T02:29:18.712Z,100.00
2023-03-03T02:32:25.601Z,100.00
2023-03-03T02:35:35.464Z,100.00
2023-03-03T02:38:45.131Z,100.00
2023-03-03T02:41:53.406Z,100.00
2023-03-03T02:44:59.287Z,100.00
2023-03-03T02:48:04.966Z,100.00
2023-03-03T02:51:10.459Z,100.00
2023-03-03T02:54:16.899Z,100.00
2023-03-03T02:57:22.388Z,100.00
2023-03-03T03:00:27.905Z,100.00
2023-03-03T03:03:33.417Z,100.00
2023-03-03T03:06:40.990Z,100.00
2023-03-03T03:09:47.957Z,100.00
2023-03-03T03:12:53.376Z,100.00
2023-03-03T03:15:59.532Z,100.00
2023-03-03T03:19:08.204Z,100.00
2023-03-03T03:22:14.151Z,100.00
2023-03-03T03:25:19.879Z,100.00
2023-03-03T03:28:25.833Z,100.00
2023-03-03T03:31:31.850Z,100.00
2023-03-03T03:34:37.476Z,100.00
2023-03-03T03:37:43.057Z,100.00
2023-03-03T03:40:51.171Z,100.00
2023-03-03T03:43:56.816Z,100.00
2023-03-03T03:47:03.153Z,100.00
2023-03-03T03:50:12.515Z,100.00
2023-03-03T03:53:18.397Z,100.00
2023-03-03T03:56:27.464Z,100.00
2023-03-03T03:59:34.337Z,100.00
2023-03-03T04:02:40.306Z,100.00
2023-03-03T04:05:47.552Z,100.00
2023-03-03T04:08:53.200Z,100.00
2023-03-03T04:12:00.108Z,100.00
2023-03-03T04:15:19.237Z,100.00
2023-03-03T04:18:24.802Z,100.00
2023-03-03T04:21:30.518Z,100.00
2023-03-03T04:24:39.407Z,100.00
2023-03-03T04:27:48.352Z,100.00
2023-03-03T04:31:05.445Z,100.00
2023-03-03T04:34:14.372Z,100.00
2023-03-03T04:37:22.904Z,100.00
2023-03-03T04:40:31.690Z,100.00
2023-03-03T04:43:40.129Z,100.00
2023-03-03T04:46:52.050Z,100.00
2023-03-03T04:49:57.967Z,100.00
2023-03-03T04:53:03.901Z,100.00
2023-03-03T04:56:11.981Z,100.00
2023-03-03T04:59:17.332Z,100.00
2023-03-03T05:02:25.394Z,100.00
2023-03-03T05:05:33.115Z,100.00
2023-03-03T05:08:38.921Z,100.00
2023-03-03T05:11:47.025Z,100.00
2023-03-03T05:14:55.010Z,100.00
2023-03-03T05:18:00.674Z,100.00
2023-03-03T05:21:11.177Z,100.00
2023-03-03T05:24:16.942Z,100.00
2023-03-03T05:27:24.748Z,100.00
2023-03-03T05:30:32.539Z,100.00
2023-03-03T05:33:45.303Z,100.00
2023-03-03T05:36:50.981Z,100.00
2023-03-03T05:39:56.426Z,100.00
2023-03-03T05:43:02.061Z,100.00
2023-03-03T05:46:07.738Z,100.00
2023-03-03T05:49:15.678Z,100.00
2023-03-03T05:52:21.915Z,100.00
2023-03-03T05:55:27.552Z,100.00
2023-03-03T05:58:36.128Z,100.00
2023-03-03T06:01:41.647Z,100.00
2023-03-03T06:04:47.181Z,100.00
2023-03-03T06:07:52.599Z,100.00
2023-03-03T06:10:58.106Z,100.00
2023-03-03T06:14:04.044Z,100.00
2023-03-03T06:17:09.585Z,100.00
2023-03-03T06:20:24.045Z,100.00
2023-03-03T06:23:29.709Z,100.00
2023-03-03T06:26:35.099Z,100.00
2023-03-03T06:29:40.567Z,100.00
2023-03-03T06:32:46.266Z,100.00
2023-03-03T06:35:52.691Z,100.00
2023-03-03T06:38:58.038Z,100.00
2023-03-03T06:42:07.214Z,100.00
2023-03-03T06:45:15.861Z,100.00
2023-03-03T06:48:21.261Z,100.00
2023-03-03T06:51:31.656Z,100.00
2023-03-03T06:54:37.106Z,100.00
2023-03-03T06:57:42.726Z,100.00
2023-03-03T07:00:55.066Z,100.00
2023-03-03T07:04:00.593Z,100.00
2023-03-03T07:07:09.473Z,100.00
2023-03-03T07:10:22.595Z,100.00
2023-03-03T07:13:29.311Z,100.00
2023-03-03T07:16:45.000Z,100.00
2023-03-03T07:19:52.912Z,100.00
2023-03-03T07:22:58.464Z,100.00
2023-03-03T07:26:03.913Z,100.00
2023-03-03T07:29:31.238Z,100.00
2023-03-03T07:32:41.206Z,100.00
2023-03-03T07:35:48.090Z,100.00
2023-03-03T07:38:56.713Z,100.00
2023-03-03T07:42:08.708Z,100.00
2023-03-03T07:45:24.599Z,100.00
2023-03-03T07:48:32.093Z,100.00
2023-03-03T07:51:42.083Z,100.00
2023-03-03T07:54:49.307Z,100.00
2023-03-03T07:57:59.156Z,100.00
2023-03-03T08:01:18.339Z,100.00
2023-03-03T08:04:26.397Z,100.00
2023-03-03T08:07:31.865Z,100.00
2023-03-03T08:10:40.154Z,100.00
2023-03-03T08:13:56.655Z,100.00
2023-03-03T08:17:08.539Z,100.00
2023-03-03T08:20:27.512Z,100.00
2023-03-03T08:23:32.914Z,100.00
2023-03-03T08:26:38.858Z,100.00
2023-03-03T08:29:44.219Z,100.00
2023-03-03T08:32:52.669Z,100.00
2023-03-03T08:35:58.086Z,100.00
2023-03-03T08:39:06.400Z,100.00
2023-03-03T08:42:11.766Z,100.00
2023-03-03T08:45:17.889Z,100.00
2023-03-03T08:48:23.212Z,100.00
2023-03-03T08:51:28.497Z,100.00
2023-03-03T08:54:34.033Z,100.00
2023-03-03T08:57:40.060Z,100.00
2023-03-03T09:00:49.248Z,100.00
2023-03-03T09:03:56.179Z,100.00
2023-03-03T09:07:01.716Z,100.00
2023-03-03T09:10:08.180Z,100.00
2023-03-03T09:13:15.255Z,100.00
2023-03-03T09:16:22.397Z,100.00
2023-03-03T09:19:29.550Z,100.00
2023-03-03T09:22:37.547Z,100.00
2023-03-03T09:25:43.140Z,100.00
2023-03-03T09:28:48.738Z,100.00
2023-03-03T09:31:55.646Z,100.00
2023-03-03T09:35:23.803Z,100.00
2023-03-03T09:38:33.188Z,100.00
2023-03-03T09:41:58.406Z,100.00
2023-03-03T09:45:24.390Z,100.00
2023-03-03T09:48:47.169Z,100.00
2023-03-03T09:52:00.296Z,100.00
2023-03-03T09:55:25.373Z,100.00
2023-03-03T09:58:37.512Z,100.00
2023-03-03T10:01:51.451Z,100.00
2023-03-03T10:05:06.677Z,100.00
2023-03-03T10:08:36.245Z,100.00
2023-03-03T10:11:48.955Z,100.00
2023-03-03T10:15:11.043Z,100.00
2023-03-03T10:18:26.060Z,100.00
2023-03-03T10:21:35.547Z,100.00
2023-03-03T10:24:45.627Z,100.00
2023-03-03T10:27:57.888Z,100.00
2023-03-03T10:31:13.448Z,100.00
2023-03-03T10:34:28.663Z,100.00
2023-03-03T10:37:40.464Z,100.00
2023-03-03T10:40:48.338Z,100.00
2023-03-03T10:44:00.290Z,100.00
2023-03-03T10:47:26.676Z,100.00
2023-03-03T10:50:35.508Z,100.00
2023-03-03T10:53:46.681Z,100.00
2023-03-03T10:56:57.705Z,100.00
2023-03-03T11:00:10.984Z,100.00
2023-03-03T11:03:27.620Z,100.00
2023-03-03T11:06:39.052Z,100.00
2023-03-03T11:09:53.600Z,100.00
2023-03-03T11:13:10.775Z,100.00
2023-03-03T11:16:26.929Z,99.83
2023-03-03T11:19:52.807Z,98.92
2023-03-03T11:23:03.627Z,98.89
2023-03-03T11:26:14.234Z,98.25
2023-03-03T11:29:28.280Z,99.71
2023-03-03T11:32:39.279Z,99.07
2023-03-03T11:35:52.553Z,98.49
2023-03-03T11:39:00.270Z,98.38
2023-03-03T11:42:14.071Z,98.15
2023-03-03T11:48:40.797Z,98.81
2023-03-03T11:51:50.156Z,98.71
2023-03-03T11:54:57.593Z,99.27
2023-03-03T11:58:09.156Z,99.93
2023-03-03T12:01:21.105Z,99.87
2023-03-03T12:04:30.905Z,99.78
2023-03-03T12:08:00.789Z,100.00
2023-03-03T12:11:09.054Z,99.77
2023-03-03T12:14:36.615Z,99.31
2023-03-03T12:17:52.605Z,99.74
2023-03-03T12:21:04.365Z,99.62
2023-03-03T12:24:18.912Z,99.65
2023-03-03T12:27:30.663Z,99.91
2023-03-03T12:30:43.453Z,100.00
2023-03-03T12:33:57.078Z,100.00
2023-03-03T12:37:14.103Z,100.00
2023-03-03T12:40:26.010Z,99.86
2023-03-03T12:43:40.693Z,99.49
2023-03-03T12:46:48.553Z,99.31
2023-03-03T12:50:08.408Z,100.00
2023-03-03T12:53:25.993Z,100.00
2023-03-03T12:56:36.648Z,100.00
2023-03-03T12:59:47.066Z,100.00
2023-03-03T13:02:59.137Z,100.00
2023-03-03T13:06:08.655Z,100.00
2023-03-03T13:09:27.478Z,100.00
2023-03-03T13:12:41.794Z,100.00
2023-03-03T13:15:56.358Z,100.00
2023-03-03T13:19:18.445Z,100.00
2023-03-03T13:22:32.459Z,99.91
2023-03-03T13:25:50.416Z,99.96
2023-03-03T13:29:03.787Z,99.99
2023-03-03T13:32:13.506Z,99.76
2023-03-03T13:35:33.575Z,99.18
2023-03-03T13:38:58.630Z,98.71
2023-03-03T13:42:28.524Z,98.52
2023-03-03T13:45:38.600Z,98.86
2023-03-03T13:48:49.022Z,99.18
2023-03-03T13:51:59.851Z,98.94
2023-03-03T13:55:13.295Z,97.94
2023-03-03T13:58:25.410Z,98.37
2023-03-03T14:01:33.973Z,99.00
2023-03-03T14:04:43.777Z,98.89
2023-03-03T14:07:52.098Z,98.55
2023-03-03T14:11:07.572Z,98.02
2023-03-03T14:14:17.633Z,96.70
2023-03-03T14:17:28.339Z,96.66
2023-03-03T14:20:55.030Z,97.08
2023-03-03T14:24:08.260Z,97.26
2023-03-03T14:27:24.312Z,97.59
2023-03-03T14:30:35.094Z,97.91
2023-03-03T14:33:40.874Z,98.10
2023-03-03T14:36:46.516Z,98.41
2023-03-03T14:40:13.561Z,98.08
2023-03-03T14:43:24.520Z,98.53
2023-03-03T14:46:35.406Z,98.95
2023-03-03T14:49:42.009Z,99.13
2023-03-03T14:53:04.180Z,99.16
2023-03-03T14:56:18.020Z,98.66
2023-03-03T14:59:24.834Z,98.66
2023-03-03T15:02:31.980Z,98.62
2023-03-03T15:05:37.865Z,98.57
2023-03-03T15:08:43.697Z,99.05
2023-03-03T15:11:51.749Z,98.79
2023-03-03T15:15:11.308Z,98.90
2023-03-03T15:18:17.127Z,99.15
2023-03-03T15:21:32.305Z,98.90
2023-03-03T15:24:44.568Z,98.90
2023-03-03T15:27:52.915Z,99.08
2023-03-03T15:31:01.414Z,99.29
2023-03-03T15:34:09.803Z,99.44
2023-03-03T15:37:23.810Z,99.77
2023-03-03T15:40:30.059Z,99.88
2023-03-03T15:43:38.501Z,100.00
2023-03-03T15:46:53.882Z,100.00
2023-03-03T15:50:07.704Z,100.00
2023-03-03T15:53:39.478Z,100.00
2023-03-03T15:57:06.395Z,100.00
2023-03-03T16:00:24.574Z,100.00
2023-03-03T16:03:35.218Z,100.00
2023-03-03T16:06:47.161Z,100.00
2023-03-03T16:09:57.189Z,100.00
2023-03-03T16:13:09.664Z,100.00
2023-03-03T16:16:21.628Z,100.00
2023-03-03T16:19:34.338Z,100.00
2023-03-03T16:22:54.883Z,100.00
2023-03-03T16:26:03.900Z,100.00
2023-03-03T16:29:29.003Z,100.00
2023-03-03T16:32:45.648Z,100.00
2023-03-03T16:36:08.833Z,100.00
2023-03-03T16:39:21.547Z,100.00
2023-03-03T16:42:30.128Z,100.00
2023-03-03T16:45:37.729Z,100.00
2023-03-03T16:48:47.055Z,100.00
2023-03-03T16:51:57.543Z,100.00
2023-03-03T16:55:06.282Z,100.00
2023-03-03T16:58:23.445Z,100.00
2023-03-03T17:01:34.059Z,100.00
2023-03-03T17:04:58.946Z,100.00
2023-03-03T17:08:19.289Z,100.00
2023-03-03T17:11:27.944Z,100.00
2023-03-03T17:14:42.075Z,100.00
2023-03-03T17:18:12.432Z,100.00
2023-03-03T17:21:23.502Z,100.00
2023-03-03T17:24:41.164Z,100.00
2023-03-03T17:27:54.655Z,100.00
2023-03-03T17:31:10.838Z,100.00
2023-03-03T17:34:30.669Z,100.00
2023-03-03T17:37:54.035Z,100.00
2023-03-03T17:41:23.359Z,100.00
2023-03-03T17:44:47.421Z,100.00
2023-03-03T17:48:19.757Z,100.00
2023-03-03T17:52:04.611Z,100.00
2023-03-03T17:55:22.558Z,100.00
2023-03-03T17:58:49.010Z,100.00
2023-03-03T18:02:35.456Z,100.00
2023-03-03T18:06:03.243Z,100.00
2023-03-03T18:09:32.798Z,100.00
2023-03-03T18:12:44.564Z,100.00
2023-03-03T18:16:11.548Z,100.00
2023-03-03T18:19:29.570Z,100.00
2023-03-03T18:22:35.559Z,100.00
2023-03-03T18:25:57.999Z,100.00
2023-03-03T18:29:11.920Z,100.00
2023-03-03T18:32:44.311Z,100.00
2023-03-03T18:35:51.243Z,100.00
2023-03-03T18:38:57.927Z,100.00
2023-03-03T18:42:09.120Z,100.00
2023-03-03T18:45:28.372Z,100.00
2023-03-03T18:48:50.866Z,100.00
2023-03-03T18:52:12.494Z,100.00
2023-03-03T18:55:27.168Z,100.00
2023-03-03T18:58:40.852Z,100.00
2023-03-03T19:01:53.586Z,100.00
2023-03-03T19:05:20.115Z,100.00
2023-03-03T19:08:51.283Z,100.00
2023-03-03T19:11:57.061Z,100.00
2023-03-03T19:15:02.722Z,100.00
2023-03-03T19:18:15.587Z,100.00
2023-03-03T19:21:42.861Z,100.00
2023-03-03T19:25:15.771Z,100.00
2023-03-03T19:28:44.130Z,100.00
2023-03-03T19:32:18.542Z,100.00
2023-03-03T19:35:38.547Z,100.00
2023-03-03T19:38:50.437Z,100.00
2023-03-03T19:42:39.976Z,100.00
2023-03-03T19:45:52.107Z,100.00
2023-03-03T19:49:03.381Z,100.00
2023-03-03T19:52:16.309Z,100.00
2023-03-03T19:55:38.292Z,100.00
2023-03-03T19:58:48.386Z,100.00
2023-03-03T20:02:00.666Z,100.00
2023-03-03T20:05:12.144Z,100.00
2023-03-03T20:08:20.607Z,100.00
2023-03-03T20:11:36.040Z,100.00
2023-03-03T20:14:50.134Z,100.00
2023-03-03T20:18:04.594Z,100.00
2023-03-03T20:21:13.089Z,100.00
2023-03-03T20:24:31.243Z,100.00
2023-03-03T20:27:41.145Z,100.00
2023-03-03T20:30:53.472Z,100.00
2023-03-03T20:34:04.698Z,100.00
2023-03-03T20:37:12.206Z,100.00
2023-03-03T20:40:27.170Z,100.00
2023-03-03T20:43:56.629Z,100.00
2023-03-03T20:47:05.467Z,100.00
2023-03-03T20:50:18.436Z,100.00
2023-03-03T20:53:26.854Z,100.00
2023-03-03T20:56:37.249Z,100.00
2023-03-03T20:59:48.477Z,100.00
2023-03-03T21:03:11.732Z,100.00
2023-03-03T21:06:40.871Z,100.00
2023-03-03T21:09:48.686Z,100.00
2023-03-03T21:13:18.853Z,100.00
2023-03-03T21:16:32.582Z,100.00
2023-03-03T21:19:38.307Z,100.00
2023-03-03T21:22:43.709Z,100.00
2023-03-03T21:25:55.427Z,100.00
2023-03-03T21:29:03.927Z,100.00
2023-03-03T21:32:40.336Z,100.00
2023-03-03T21:35:59.359Z,100.00
2023-03-03T21:39:27.337Z,100.00
2023-03-03T21:42:42.351Z,100.00
2023-03-03T21:45:48.303Z,100.00
2023-03-03T21:48:53.769Z,100.00
2023-03-03T21:51:59.415Z,100.00
2023-03-03T21:55:08.622Z,100.00
2023-03-03T21:58:16.582Z,100.00
2023-03-03T22:01:33.064Z,100.00
2023-03-03T22:04:39.208Z,100.00
2023-03-03T22:07:52.382Z,100.00
2023-03-03T22:11:10.376Z,100.00
2023-03-03T22:14:18.320Z,100.00
2023-03-03T22:17:25.504Z,100.00
2023-03-03T22:20:33.764Z,100.00
2023-03-03T22:23:39.181Z,100.00
2023-03-03T22:27:05.215Z,100.00
2023-03-03T22:30:12.121Z,100.00
2023-03-03T22:33:37.853Z,100.00
2023-03-03T22:37:03.877Z,100.00
2023-03-03T22:40:29.811Z,100.00
2023-03-03T22:43:55.839Z,100.00
2023-03-03T22:47:21.643Z,100.00
2023-03-03T22:50:47.491Z,100.00
2023-03-03T22:54:13.590Z,100.00
2023-03-03T22:57:39.314Z,100.00
2023-03-03T23:01:05.209Z,100.00
2023-03-03T23:04:33.028Z,100.00
2023-03-03T23:07:58.731Z,100.00
2023-03-03T23:11:25.426Z,100.00
2023-03-03T23:14:50.917Z,100.00
2023-03-03T23:18:16.715Z,100.00
2023-03-03T23:21:42.565Z,100.00
2023-03-03T23:25:09.271Z,100.00
2023-03-03T23:28:35.505Z,100.00
2023-03-03T23:32:01.330Z,100.00
2023-03-03T23:35:27.404Z,100.00
2023-03-03T23:38:53.130Z,100.00
2023-03-03T23:42:18.906Z,100.00
2023-03-03T23:45:44.624Z,100.00
2023-03-03T23:49:10.330Z,100.00
2023-03-03T23:52:36.788Z,100.00
2023-03-03T23:56:02.511Z,100.00
2023-03-03T23:59:28.367Z,100.00
